sensor_id;sensor_type;location;lat;lon;timestamp;temperature;humidity
2913;DHT22;1466;48.778;9.166;2023-09-07T00:00:46;21.40;95.10
2913;DHT22;1466;48.778;9.166;2023-09-07T00:03:13;21.40;95.10
2913;DHT22;1466;48.778;9.166;2023-09-07T00:05:39;21.30;95.00
2913;DHT22;1466;48.778;9.166;2023-09-07T00:08:04;21.30;95.00
2913;DHT22;1466;48.778;9.166;2023-09-07T00:10:31;21.30;95.00
2913;DHT22;1466;48.778;9.166;2023-09-07T00:12:57;21.20;95.00
2913;DHT22;1466;48.778;9.166;2023-09-07T00:15:23;21.20;95.20
2913;DHT22;1466;48.778;9.166;2023-09-07T00:17:48;21.20;95.00
2913;DHT22;1466;48.778;9.166;2023-09-07T00:20:15;21.20;95.10
2913;DHT22;1466;48.778;9.166;2023-09-07T00:22:40;21.20;95.10
2913;DHT22;1466;48.778;9.166;2023-09-07T00:25:06;21.10;95.10
2913;DHT22;1466;48.778;9.166;2023-09-07T00:27:35;21.10;95.40
2913;DHT22;1466;48.778;9.166;2023-09-07T00:30:02;21.20;95.40
2913;DHT22;1466;48.778;9.166;2023-09-07T00:32:29;21.10;95.50
2913;DHT22;1466;48.778;9.166;2023-09-07T00:34:55;21.10;95.60
2913;DHT22;1466;48.778;9.166;2023-09-07T00:37:21;21.00;95.80
2913;DHT22;1466;48.778;9.166;2023-09-07T00:39:46;21.00;95.70
2913;DHT22;1466;48.778;9.166;2023-09-07T00:42:12;21.00;95.80
2913;DHT22;1466;48.778;9.166;2023-09-07T00:44:37;21.10;95.90
2913;DHT22;1466;48.778;9.166;2023-09-07T00:47:03;21.10;95.90
2913;DHT22;1466;48.778;9.166;2023-09-07T00:49:30;21.00;96.00
2913;DHT22;1466;48.778;9.166;2023-09-07T00:51:56;21.00;96.00
2913;DHT22;1466;48.778;9.166;2023-09-07T00:54:23;20.90;96.10
2913;DHT22;1466;48.778;9.166;2023-09-07T00:56:48;20.90;96.10
2913;DHT22;1466;48.778;9.166;2023-09-07T00:59:14;20.90;96.20
2913;DHT22;1466;48.778;9.166;2023-09-07T01:01:40;20.90;96.60
2913;DHT22;1466;48.778;9.166;2023-09-07T01:04:07;21.00;96.30
2913;DHT22;1466;48.778;9.166;2023-09-07T01:06:39;21.00;96.30
2913;DHT22;1466;48.778;9.166;2023-09-07T01:09:11;20.90;96.10
2913;DHT22;1466;48.778;9.166;2023-09-07T01:11:39;20.70;96.50
2913;DHT22;1466;48.778;9.166;2023-09-07T01:14:05;20.50;96.80
2913;DHT22;1466;48.778;9.166;2023-09-07T01:16:31;20.40;97.00
2913;DHT22;1466;48.778;9.166;2023-09-07T01:19:01;20.40;97.10
2913;DHT22;1466;48.778;9.166;2023-09-07T01:21:34;20.40;97.30
2913;DHT22;1466;48.778;9.166;2023-09-07T01:24:00;20.40;97.30
2913;DHT22;1466;48.778;9.166;2023-09-07T01:26:26;20.40;97.30
2913;DHT22;1466;48.778;9.166;2023-09-07T01:28:52;20.40;97.40
2913;DHT22;1466;48.778;9.166;2023-09-07T01:31:17;20.40;97.40
2913;DHT22;1466;48.778;9.166;2023-09-07T01:33:43;20.50;97.30
2913;DHT22;1466;48.778;9.166;2023-09-07T01:36:09;20.40;97.30
2913;DHT22;1466;48.778;9.166;2023-09-07T01:38:34;20.50;97.40
2913;DHT22;1466;48.778;9.166;2023-09-07T01:41:00;20.50;97.30
2913;DHT22;1466;48.778;9.166;2023-09-07T01:43:26;20.40;97.30
2913;DHT22;1466;48.778;9.166;2023-09-07T01:45:51;20.50;97.40
2913;DHT22;1466;48.778;9.166;2023-09-07T01:48:17;20.50;97.40
2913;DHT22;1466;48.778;9.166;2023-09-07T01:50:43;20.50;97.20
2913;DHT22;1466;48.778;9.166;2023-09-07T01:53:08;20.50;97.10
2913;DHT22;1466;48.778;9.166;2023-09-07T01:55:34;20.50;97.30
2913;DHT22;1466;48.778;9.166;2023-09-07T01:57:59;20.50;97.40
2913;DHT22;1466;48.778;9.166;2023-09-07T02:00:25;20.50;97.40
2913;DHT22;1466;48.778;9.166;2023-09-07T02:02:51;20.50;97.30
2913;DHT22;1466;48.778;9.166;2023-09-07T02:05:16;20.50;97.30
2913;DHT22;1466;48.778;9.166;2023-09-07T02:07:43;20.60;97.30
2913;DHT22;1466;48.778;9.166;2023-09-07T02:10:09;20.60;97.20
2913;DHT22;1466;48.778;9.166;2023-09-07T02:12:34;20.50;97.20
2913;DHT22;1466;48.778;9.166;2023-09-07T02:15:01;20.50;97.10
2913;DHT22;1466;48.778;9.166;2023-09-07T02:17:28;20.40;97.40
2913;DHT22;1466;48.778;9.166;2023-09-07T02:19:53;20.30;97.40
2913;DHT22;1466;48.778;9.166;2023-09-07T02:22:19;20.30;97.40
2913;DHT22;1466;48.778;9.166;2023-09-07T02:24:44;20.20;97.70
2913;DHT22;1466;48.778;9.166;2023-09-07T02:27:10;20.10;97.80
2913;DHT22;1466;48.778;9.166;2023-09-07T02:29:35;20.00;98.00
2913;DHT22;1466;48.778;9.166;2023-09-07T02:32:01;20.00;98.10
2913;DHT22;1466;48.778;9.166;2023-09-07T02:34:27;20.00;98.10
2913;DHT22;1466;48.778;9.166;2023-09-07T02:36:52;20.00;98.20
2913;DHT22;1466;48.778;9.166;2023-09-07T02:39:18;20.00;98.30
2913;DHT22;1466;48.778;9.166;2023-09-07T02:41:44;20.10;98.50
2913;DHT22;1466;48.778;9.166;2023-09-07T02:44:10;20.10;98.20
2913;DHT22;1466;48.778;9.166;2023-09-07T02:46:36;20.00;98.30
2913;DHT22;1466;48.778;9.166;2023-09-07T02:49:01;19.70;98.60
2913;DHT22;1466;48.778;9.166;2023-09-07T02:51:27;19.70;98.80
2913;DHT22;1466;48.778;9.166;2023-09-07T02:53:53;19.70;99.00
2913;DHT22;1466;48.778;9.166;2023-09-07T02:56:19;19.70;99.00
2913;DHT22;1466;48.778;9.166;2023-09-07T02:58:45;19.70;98.80
2913;DHT22;1466;48.778;9.166;2023-09-07T03:01:11;19.60;99.00
2913;DHT22;1466;48.778;9.166;2023-09-07T03:03:37;19.70;99.00
2913;DHT22;1466;48.778;9.166;2023-09-07T03:06:13;19.70;99.00
2913;DHT22;1466;48.778;9.166;2023-09-07T03:08:40;19.70;99.00
2913;DHT22;1466;48.778;9.166;2023-09-07T03:11:06;19.80;98.90
2913;DHT22;1466;48.778;9.166;2023-09-07T03:13:32;19.80;98.80
2913;DHT22;1466;48.778;9.166;2023-09-07T03:15:59;19.60;98.90
2913;DHT22;1466;48.778;9.166;2023-09-07T03:18:25;19.60;99.00
2913;DHT22;1466;48.778;9.166;2023-09-07T03:20:53;19.60;99.00
2913;DHT22;1466;48.778;9.166;2023-09-07T03:23:19;19.60;99.10
2913;DHT22;1466;48.778;9.166;2023-09-07T03:25:44;19.60;99.00
2913;DHT22;1466;48.778;9.166;2023-09-07T03:28:10;19.60;99.00
2913;DHT22;1466;48.778;9.166;2023-09-07T03:30:36;19.60;99.00
2913;DHT22;1466;48.778;9.166;2023-09-07T03:33:01;19.50;99.00
2913;DHT22;1466;48.778;9.166;2023-09-07T03:35:28;19.50;99.10
2913;DHT22;1466;48.778;9.166;2023-09-07T03:37:54;19.50;99.20
2913;DHT22;1466;48.778;9.166;2023-09-07T03:40:20;19.40;99.20
2913;DHT22;1466;48.778;9.166;2023-09-07T03:42:45;19.50;99.40
2913;DHT22;1466;48.778;9.166;2023-09-07T03:45:11;19.50;99.10
2913;DHT22;1466;48.778;9.166;2023-09-07T03:47:38;19.40;99.20
2913;DHT22;1466;48.778;9.166;2023-09-07T03:50:04;19.30;99.30
2913;DHT22;1466;48.778;9.166;2023-09-07T03:52:30;19.20;99.40
2913;DHT22;1466;48.778;9.166;2023-09-07T03:54:56;19.30;99.80
2913;DHT22;1466;48.778;9.166;2023-09-07T03:57:22;19.30;99.40
2913;DHT22;1466;48.778;9.166;2023-09-07T03:59:48;19.20;99.60
2913;DHT22;1466;48.778;9.166;2023-09-07T04:02:16;19.10;99.90
2913;DHT22;1466;48.778;9.166;2023-09-07T04:04:50;19.00;99.90
2913;DHT22;1466;48.778;9.166;2023-09-07T04:07:16;18.80;99.90
2913;DHT22;1466;48.778;9.166;2023-09-07T04:09:42;18.90;99.90
2913;DHT22;1466;48.778;9.166;2023-09-07T04:12:08;18.90;99.90
2913;DHT22;1466;48.778;9.166;2023-09-07T04:14:34;19.00;99.90
2913;DHT22;1466;48.778;9.166;2023-09-07T04:17:00;19.10;99.90
2913;DHT22;1466;48.778;9.166;2023-09-07T04:19:26;19.20;99.90
2913;DHT22;1466;48.778;9.166;2023-09-07T04:21:51;19.10;99.90
2913;DHT22;1466;48.778;9.166;2023-09-07T04:24:17;19.00;99.90
2913;DHT22;1466;48.778;9.166;2023-09-07T04:26:43;19.00;99.90
2913;DHT22;1466;48.778;9.166;2023-09-07T04:29:08;18.90;99.90
2913;DHT22;1466;48.778;9.166;2023-09-07T04:31:35;18.90;99.90
2913;DHT22;1466;48.778;9.166;2023-09-07T04:34:00;18.80;99.90
2913;DHT22;1466;48.778;9.166;2023-09-07T04:36:28;18.70;99.90
2913;DHT22;1466;48.778;9.166;2023-09-07T04:38:53;18.70;99.90
2913;DHT22;1466;48.778;9.166;2023-09-07T04:41:19;18.60;99.90
2913;DHT22;1466;48.778;9.166;2023-09-07T04:43:44;18.60;99.90
2913;DHT22;1466;48.778;9.166;2023-09-07T04:46:11;18.60;99.90
2913;DHT22;1466;48.778;9.166;2023-09-07T04:48:37;18.60;99.90
2913;DHT22;1466;48.778;9.166;2023-09-07T04:51:04;18.60;99.90
2913;DHT22;1466;48.778;9.166;2023-09-07T04:53:32;18.60;99.90
2913;DHT22;1466;48.778;9.166;2023-09-07T04:55:58;18.70;99.90
2913;DHT22;1466;48.778;9.166;2023-09-07T04:58:25;18.80;99.90
2913;DHT22;1466;48.778;9.166;2023-09-07T05:00:51;18.90;99.90
2913;DHT22;1466;48.778;9.166;2023-09-07T05:03:16;19.00;99.90
2913;DHT22;1466;48.778;9.166;2023-09-07T05:05:43;19.00;99.90
2913;DHT22;1466;48.778;9.166;2023-09-07T05:08:11;18.90;99.90
2913;DHT22;1466;48.778;9.166;2023-09-07T05:10:38;18.80;99.90
2913;DHT22;1466;48.778;9.166;2023-09-07T05:13:03;18.80;99.90
2913;DHT22;1466;48.778;9.166;2023-09-07T05:15:29;18.80;99.90
2913;DHT22;1466;48.778;9.166;2023-09-07T05:17:55;18.80;99.90
2913;DHT22;1466;48.778;9.166;2023-09-07T05:20:21;18.80;99.90
2913;DHT22;1466;48.778;9.166;2023-09-07T05:22:47;18.80;99.90
2913;DHT22;1466;48.778;9.166;2023-09-07T05:25:13;18.80;99.90
2913;DHT22;1466;48.778;9.166;2023-09-07T05:27:39;18.80;99.90
2913;DHT22;1466;48.778;9.166;2023-09-07T05:30:05;18.90;99.90
2913;DHT22;1466;48.778;9.166;2023-09-07T05:32:32;18.90;99.90
2913;DHT22;1466;48.778;9.166;2023-09-07T05:34:57;18.90;99.90
2913;DHT22;1466;48.778;9.166;2023-09-07T05:37:23;18.80;99.90
2913;DHT22;1466;48.778;9.166;2023-09-07T05:39:49;18.80;99.90
2913;DHT22;1466;48.778;9.166;2023-09-07T05:42:15;18.80;99.90
2913;DHT22;1466;48.778;9.166;2023-09-07T05:44:41;18.80;99.90
2913;DHT22;1466;48.778;9.166;2023-09-07T05:47:06;18.80;99.90
2913;DHT22;1466;48.778;9.166;2023-09-07T05:49:32;18.90;99.90
2913;DHT22;1466;48.778;9.166;2023-09-07T05:51:57;18.90;99.90
2913;DHT22;1466;48.778;9.166;2023-09-07T05:54:23;18.90;99.90
2913;DHT22;1466;48.778;9.166;2023-09-07T05:56:48;18.90;99.90
2913;DHT22;1466;48.778;9.166;2023-09-07T05:59:14;18.90;99.90
2913;DHT22;1466;48.778;9.166;2023-09-07T06:01:40;18.90;99.90
2913;DHT22;1466;48.778;9.166;2023-09-07T06:04:06;18.90;99.90
2913;DHT22;1466;48.778;9.166;2023-09-07T06:06:32;19.00;99.90
2913;DHT22;1466;48.778;9.166;2023-09-07T06:08:57;19.00;99.90
2913;DHT22;1466;48.778;9.166;2023-09-07T06:11:26;19.00;99.90
2913;DHT22;1466;48.778;9.166;2023-09-07T06:13:51;19.00;99.90
2913;DHT22;1466;48.778;9.166;2023-09-07T06:16:17;19.10;99.90
2913;DHT22;1466;48.778;9.166;2023-09-07T06:18:43;19.20;99.90
2913;DHT22;1466;48.778;9.166;2023-09-07T06:21:09;19.20;99.90
2913;DHT22;1466;48.778;9.166;2023-09-07T06:23:35;19.20;99.90
2913;DHT22;1466;48.778;9.166;2023-09-07T06:26:00;19.10;99.90
2913;DHT22;1466;48.778;9.166;2023-09-07T06:28:26;19.10;99.90
2913;DHT22;1466;48.778;9.166;2023-09-07T06:30:52;19.20;99.90
2913;DHT22;1466;48.778;9.166;2023-09-07T06:33:18;19.20;99.90
2913;DHT22;1466;48.778;9.166;2023-09-07T06:35:43;19.20;99.90
2913;DHT22;1466;48.778;9.166;2023-09-07T06:38:09;19.20;99.90
2913;DHT22;1466;48.778;9.166;2023-09-07T06:40:34;19.20;99.90
2913;DHT22;1466;48.778;9.166;2023-09-07T06:43:00;19.20;99.90
2913;DHT22;1466;48.778;9.166;2023-09-07T06:45:33;19.40;99.90
2913;DHT22;1466;48.778;9.166;2023-09-07T06:47:59;19.50;99.90
2913;DHT22;1466;48.778;9.166;2023-09-07T06:50:25;19.50;99.90
2913;DHT22;1466;48.778;9.166;2023-09-07T06:52:50;19.60;99.90
2913;DHT22;1466;48.778;9.166;2023-09-07T06:55:16;19.70;99.90
2913;DHT22;1466;48.778;9.166;2023-09-07T06:57:42;19.80;99.90
2913;DHT22;1466;48.778;9.166;2023-09-07T07:00:08;19.90;99.90
2913;DHT22;1466;48.778;9.166;2023-09-07T07:02:33;20.00;99.90
2913;DHT22;1466;48.778;9.166;2023-09-07T07:05:00;20.10;99.90
2913;DHT22;1466;48.778;9.166;2023-09-07T07:07:25;20.10;99.90
2913;DHT22;1466;48.778;9.166;2023-09-07T07:09:51;20.20;99.90
2913;DHT22;1466;48.778;9.166;2023-09-07T07:12:18;20.20;99.90
2913;DHT22;1466;48.778;9.166;2023-09-07T07:14:43;20.30;99.90
2913;DHT22;1466;48.778;9.166;2023-09-07T07:17:09;20.30;99.90
2913;DHT22;1466;48.778;9.166;2023-09-07T07:19:35;20.40;99.90
2913;DHT22;1466;48.778;9.166;2023-09-07T07:22:00;20.40;99.90
2913;DHT22;1466;48.778;9.166;2023-09-07T07:24:26;20.50;99.90
2913;DHT22;1466;48.778;9.166;2023-09-07T07:26:52;20.70;99.90
2913;DHT22;1466;48.778;9.166;2023-09-07T07:29:17;20.80;99.90
2913;DHT22;1466;48.778;9.166;2023-09-07T07:31:43;20.70;99.90
2913;DHT22;1466;48.778;9.166;2023-09-07T07:34:09;20.80;99.90
2913;DHT22;1466;48.778;9.166;2023-09-07T07:36:35;20.90;99.90
2913;DHT22;1466;48.778;9.166;2023-09-07T07:39:02;20.90;99.90
2913;DHT22;1466;48.778;9.166;2023-09-07T07:41:28;21.00;99.90
2913;DHT22;1466;48.778;9.166;2023-09-07T07:43:54;21.10;99.90
2913;DHT22;1466;48.778;9.166;2023-09-07T07:46:19;21.20;99.90
2913;DHT22;1466;48.778;9.166;2023-09-07T07:48:45;21.30;99.90
2913;DHT22;1466;48.778;9.166;2023-09-07T07:51:11;21.40;99.90
2913;DHT22;1466;48.778;9.166;2023-09-07T07:53:36;21.40;99.90
2913;DHT22;1466;48.778;9.166;2023-09-07T07:56:02;21.50;99.90
2913;DHT22;1466;48.778;9.166;2023-09-07T07:58:28;21.60;99.90
2913;DHT22;1466;48.778;9.166;2023-09-07T08:00:54;21.70;99.90
2913;DHT22;1466;48.778;9.166;2023-09-07T08:03:23;21.80;99.90
2913;DHT22;1466;48.778;9.166;2023-09-07T08:05:49;22.00;99.90
2913;DHT22;1466;48.778;9.166;2023-09-07T08:08:14;22.00;99.90
2913;DHT22;1466;48.778;9.166;2023-09-07T08:10:40;22.20;99.70
2913;DHT22;1466;48.778;9.166;2023-09-07T08:13:07;22.30;99.40
2913;DHT22;1466;48.778;9.166;2023-09-07T08:15:33;22.40;99.30
2913;DHT22;1466;48.778;9.166;2023-09-07T08:18:00;22.40;99.10
2913;DHT22;1466;48.778;9.166;2023-09-07T08:20:26;22.50;99.00
2913;DHT22;1466;48.778;9.166;2023-09-07T08:22:51;22.70;98.60
2913;DHT22;1466;48.778;9.166;2023-09-07T08:25:18;22.70;98.40
2913;DHT22;1466;48.778;9.166;2023-09-07T08:27:43;22.80;98.10
2913;DHT22;1466;48.778;9.166;2023-09-07T08:30:12;22.90;97.80
2913;DHT22;1466;48.778;9.166;2023-09-07T08:32:38;23.00;97.80
2913;DHT22;1466;48.778;9.166;2023-09-07T08:35:05;23.10;97.70
2913;DHT22;1466;48.778;9.166;2023-09-07T08:37:34;23.20;97.40
2913;DHT22;1466;48.778;9.166;2023-09-07T08:40:00;23.20;97.40
2913;DHT22;1466;48.778;9.166;2023-09-07T08:42:25;23.30;97.30
2913;DHT22;1466;48.778;9.166;2023-09-07T08:44:53;23.50;97.20
2913;DHT22;1466;48.778;9.166;2023-09-07T08:47:20;23.60;96.90
2913;DHT22;1466;48.778;9.166;2023-09-07T08:49:46;23.60;96.80
2913;DHT22;1466;48.778;9.166;2023-09-07T08:52:14;23.70;96.80
2913;DHT22;1466;48.778;9.166;2023-09-07T08:54:42;23.80;96.50
2913;DHT22;1466;48.778;9.166;2023-09-07T08:57:10;23.90;96.40
2913;DHT22;1466;48.778;9.166;2023-09-07T08:59:36;23.90;96.40
2913;DHT22;1466;48.778;9.166;2023-09-07T09:02:09;24.00;96.30
2913;DHT22;1466;48.778;9.166;2023-09-07T09:04:35;24.00;96.20
2913;DHT22;1466;48.778;9.166;2023-09-07T09:07:01;24.20;96.10
2913;DHT22;1466;48.778;9.166;2023-09-07T09:09:29;24.20;95.90
2913;DHT22;1466;48.778;9.166;2023-09-07T09:12:06;24.30;95.80
2913;DHT22;1466;48.778;9.166;2023-09-07T09:14:31;24.30;95.80
2913;DHT22;1466;48.778;9.166;2023-09-07T09:16:57;24.40;95.60
2913;DHT22;1466;48.778;9.166;2023-09-07T09:19:35;24.50;95.60
2913;DHT22;1466;48.778;9.166;2023-09-07T09:22:01;24.70;95.60
2913;DHT22;1466;48.778;9.166;2023-09-07T09:24:32;24.90;95.60
2913;DHT22;1466;48.778;9.166;2023-09-07T09:26:59;25.50;95.00
2913;DHT22;1466;48.778;9.166;2023-09-07T09:29:24;26.00;94.30
2913;DHT22;1466;48.778;9.166;2023-09-07T09:31:51;26.60;93.60
2913;DHT22;1466;48.778;9.166;2023-09-07T09:34:18;27.00;92.90
2913;DHT22;1466;48.778;9.166;2023-09-07T09:36:44;27.20;92.20
2913;DHT22;1466;48.778;9.166;2023-09-07T09:39:10;27.40;91.80
2913;DHT22;1466;48.778;9.166;2023-09-07T09:41:46;27.50;91.50
2913;DHT22;1466;48.778;9.166;2023-09-07T09:44:12;27.50;91.20
2913;DHT22;1466;48.778;9.166;2023-09-07T09:46:39;27.60;90.90
2913;DHT22;1466;48.778;9.166;2023-09-07T09:49:08;27.50;90.70
2913;DHT22;1466;48.778;9.166;2023-09-07T09:51:33;27.50;90.80
2913;DHT22;1466;48.778;9.166;2023-09-07T09:54:01;27.40;90.70
2913;DHT22;1466;48.778;9.166;2023-09-07T09:56:27;27.30;90.80
2913;DHT22;1466;48.778;9.166;2023-09-07T09:58:53;27.20;90.90
2913;DHT22;1466;48.778;9.166;2023-09-07T10:01:18;27.10;91.00
2913;DHT22;1466;48.778;9.166;2023-09-07T10:03:47;27.00;91.10
2913;DHT22;1466;48.778;9.166;2023-09-07T10:06:19;26.80;91.60
2913;DHT22;1466;48.778;9.166;2023-09-07T10:09:03;26.70;91.50
2913;DHT22;1466;48.778;9.166;2023-09-07T10:11:35;26.70;91.70
2913;DHT22;1466;48.778;9.166;2023-09-07T10:14:03;26.50;92.00
2913;DHT22;1466;48.778;9.166;2023-09-07T10:16:44;26.40;92.10
2913;DHT22;1466;48.778;9.166;2023-09-07T10:19:21;26.30;92.30
2913;DHT22;1466;48.778;9.166;2023-09-07T10:21:47;26.20;92.40
2913;DHT22;1466;48.778;9.166;2023-09-07T10:24:30;26.10;92.60
2913;DHT22;1466;48.778;9.166;2023-09-07T10:27:07;26.00;92.80
2913;DHT22;1466;48.778;9.166;2023-09-07T10:29:50;26.00;93.00
2913;DHT22;1466;48.778;9.166;2023-09-07T10:32:18;26.10;93.00
2913;DHT22;1466;48.778;9.166;2023-09-07T10:34:43;26.20;93.00
2913;DHT22;1466;48.778;9.166;2023-09-07T10:37:13;26.30;92.90
2913;DHT22;1466;48.778;9.166;2023-09-07T10:39:44;26.30;92.80
2913;DHT22;1466;48.778;9.166;2023-09-07T10:42:25;26.40;92.70
2913;DHT22;1466;48.778;9.166;2023-09-07T10:44:51;26.40;92.70
2913;DHT22;1466;48.778;9.166;2023-09-07T10:47:17;26.60;92.70
2913;DHT22;1466;48.778;9.166;2023-09-07T10:49:43;26.70;92.40
2913;DHT22;1466;48.778;9.166;2023-09-07T10:52:09;26.80;92.20
2913;DHT22;1466;48.778;9.166;2023-09-07T10:54:35;26.90;92.20
2913;DHT22;1466;48.778;9.166;2023-09-07T10:57:13;27.00;91.90
2913;DHT22;1466;48.778;9.166;2023-09-07T10:59:44;27.20;91.70
2913;DHT22;1466;48.778;9.166;2023-09-07T11:02:10;27.30;91.60
2913;DHT22;1466;48.778;9.166;2023-09-07T11:04:35;27.40;91.60
2913;DHT22;1466;48.778;9.166;2023-09-07T11:07:01;27.40;91.60
2913;DHT22;1466;48.778;9.166;2023-09-07T11:09:30;27.50;91.40
2913;DHT22;1466;48.778;9.166;2023-09-07T11:11:55;27.60;91.30
2913;DHT22;1466;48.778;9.166;2023-09-07T11:14:21;27.50;91.10
2913;DHT22;1466;48.778;9.166;2023-09-07T11:16:47;27.50;91.20
2913;DHT22;1466;48.778;9.166;2023-09-07T11:19:13;27.60;91.10
2913;DHT22;1466;48.778;9.166;2023-09-07T11:21:40;27.40;91.10
2913;DHT22;1466;48.778;9.166;2023-09-07T11:24:06;27.40;91.30
2913;DHT22;1466;48.778;9.166;2023-09-07T11:26:47;27.50;91.30
2913;DHT22;1466;48.778;9.166;2023-09-07T11:29:16;27.40;91.30
2913;DHT22;1466;48.778;9.166;2023-09-07T11:31:42;27.50;91.30
2913;DHT22;1466;48.778;9.166;2023-09-07T11:34:09;27.60;91.20
2913;DHT22;1466;48.778;9.166;2023-09-07T11:36:35;27.50;91.20
2913;DHT22;1466;48.778;9.166;2023-09-07T11:39:01;27.50;91.30
2913;DHT22;1466;48.778;9.166;2023-09-07T11:41:31;27.60;91.30
2913;DHT22;1466;48.778;9.166;2023-09-07T11:43:56;27.50;91.20
2913;DHT22;1466;48.778;9.166;2023-09-07T11:46:22;27.50;91.30
2913;DHT22;1466;48.778;9.166;2023-09-07T11:48:48;27.40;91.30
2913;DHT22;1466;48.778;9.166;2023-09-07T11:51:13;27.50;91.40
2913;DHT22;1466;48.778;9.166;2023-09-07T11:53:39;27.50;91.20
2913;DHT22;1466;48.778;9.166;2023-09-07T11:56:04;27.40;91.10
2913;DHT22;1466;48.778;9.166;2023-09-07T11:58:30;27.50;91.10
2913;DHT22;1466;48.778;9.166;2023-09-07T12:00:55;27.50;91.10
2913;DHT22;1466;48.778;9.166;2023-09-07T12:03:21;27.60;91.00
2913;DHT22;1466;48.778;9.166;2023-09-07T12:05:47;27.70;90.90
2913;DHT22;1466;48.778;9.166;2023-09-07T12:08:12;27.70;90.80
2913;DHT22;1466;48.778;9.166;2023-09-07T12:10:39;27.70;90.90
2913;DHT22;1466;48.778;9.166;2023-09-07T12:13:05;27.60;91.00
2913;DHT22;1466;48.778;9.166;2023-09-07T12:15:30;27.70;91.10
2913;DHT22;1466;48.778;9.166;2023-09-07T12:17:56;27.60;90.80
2913;DHT22;1466;48.778;9.166;2023-09-07T12:20:23;27.60;90.70
2913;DHT22;1466;48.778;9.166;2023-09-07T12:22:48;27.70;90.80
2913;DHT22;1466;48.778;9.166;2023-09-07T12:25:14;27.70;90.80
2913;DHT22;1466;48.778;9.166;2023-09-07T12:27:41;27.80;90.80
2913;DHT22;1466;48.778;9.166;2023-09-07T12:30:09;27.90;90.70
2913;DHT22;1466;48.778;9.166;2023-09-07T12:32:38;27.90;90.50
2913;DHT22;1466;48.778;9.166;2023-09-07T12:35:04;27.90;90.50
2913;DHT22;1466;48.778;9.166;2023-09-07T12:37:34;27.90;90.40
2913;DHT22;1466;48.778;9.166;2023-09-07T12:40:00;27.90;90.30
2913;DHT22;1466;48.778;9.166;2023-09-07T12:42:26;28.00;90.30
2913;DHT22;1466;48.778;9.166;2023-09-07T12:44:52;28.00;90.30
2913;DHT22;1466;48.778;9.166;2023-09-07T12:47:17;28.00;90.10
2913;DHT22;1466;48.778;9.166;2023-09-07T12:49:43;28.10;89.90
2913;DHT22;1466;48.778;9.166;2023-09-07T12:52:08;28.10;89.20
2913;DHT22;1466;48.778;9.166;2023-09-07T12:54:36;28.20;88.50
2913;DHT22;1466;48.778;9.166;2023-09-07T12:57:02;28.20;88.30
2913;DHT22;1466;48.778;9.166;2023-09-07T12:59:29;28.20;88.30
2913;DHT22;1466;48.778;9.166;2023-09-07T13:01:54;28.20;87.70
2913;DHT22;1466;48.778;9.166;2023-09-07T13:04:23;28.20;87.90
2913;DHT22;1466;48.778;9.166;2023-09-07T13:06:49;28.30;87.90
2913;DHT22;1466;48.778;9.166;2023-09-07T13:09:14;28.30;87.20
2913;DHT22;1466;48.778;9.166;2023-09-07T13:11:40;28.40;87.00
2913;DHT22;1466;48.778;9.166;2023-09-07T13:14:05;28.40;86.70
2913;DHT22;1466;48.778;9.166;2023-09-07T13:16:33;28.50;86.50
2913;DHT22;1466;48.778;9.166;2023-09-07T13:18:59;28.50;86.10
2913;DHT22;1466;48.778;9.166;2023-09-07T13:21:25;28.60;85.90
2913;DHT22;1466;48.778;9.166;2023-09-07T13:23:50;28.60;86.20
2913;DHT22;1466;48.778;9.166;2023-09-07T13:26:16;28.60;85.30
2913;DHT22;1466;48.778;9.166;2023-09-07T13:28:42;28.70;84.70
2913;DHT22;1466;48.778;9.166;2023-09-07T13:31:07;28.70;84.30
2913;DHT22;1466;48.778;9.166;2023-09-07T13:33:33;28.60;83.40
2913;DHT22;1466;48.778;9.166;2023-09-07T13:35:58;28.70;83.80
2913;DHT22;1466;48.778;9.166;2023-09-07T13:38:24;28.70;83.60
2913;DHT22;1466;48.778;9.166;2023-09-07T13:40:49;28.80;83.60
2913;DHT22;1466;48.778;9.166;2023-09-07T13:43:15;28.80;83.60
2913;DHT22;1466;48.778;9.166;2023-09-07T13:45:41;28.90;83.70
2913;DHT22;1466;48.778;9.166;2023-09-07T13:48:06;28.90;83.70
2913;DHT22;1466;48.778;9.166;2023-09-07T13:50:32;28.90;83.60
2913;DHT22;1466;48.778;9.166;2023-09-07T13:52:57;29.00;83.40
2913;DHT22;1466;48.778;9.166;2023-09-07T13:55:23;29.00;83.40
2913;DHT22;1466;48.778;9.166;2023-09-07T13:57:50;29.00;83.00
2913;DHT22;1466;48.778;9.166;2023-09-07T14:00:16;29.00;82.80
2913;DHT22;1466;48.778;9.166;2023-09-07T14:02:41;29.10;82.20
2913;DHT22;1466;48.778;9.166;2023-09-07T14:05:07;29.20;81.70
2913;DHT22;1466;48.778;9.166;2023-09-07T14:07:33;29.30;81.90
2913;DHT22;1466;48.778;9.166;2023-09-07T14:09:59;29.30;81.90
2913;DHT22;1466;48.778;9.166;2023-09-07T14:12:26;29.40;81.70
2913;DHT22;1466;48.778;9.166;2023-09-07T14:14:52;29.40;81.90
2913;DHT22;1466;48.778;9.166;2023-09-07T14:17:18;29.40;81.60
2913;DHT22;1466;48.778;9.166;2023-09-07T14:19:43;29.40;81.40
2913;DHT22;1466;48.778;9.166;2023-09-07T14:22:11;29.50;81.70
2913;DHT22;1466;48.778;9.166;2023-09-07T14:24:37;29.40;81.50
2913;DHT22;1466;48.778;9.166;2023-09-07T14:27:02;29.50;81.60
2913;DHT22;1466;48.778;9.166;2023-09-07T14:29:28;29.50;81.20
2913;DHT22;1466;48.778;9.166;2023-09-07T14:31:54;29.50;80.70
2913;DHT22;1466;48.778;9.166;2023-09-07T14:34:20;29.50;80.30
2913;DHT22;1466;48.778;9.166;2023-09-07T14:36:45;29.50;80.40
2913;DHT22;1466;48.778;9.166;2023-09-07T14:39:13;29.50;80.40
2913;DHT22;1466;48.778;9.166;2023-09-07T14:41:39;29.50;80.50
2913;DHT22;1466;48.778;9.166;2023-09-07T14:44:05;29.40;80.40
2913;DHT22;1466;48.778;9.166;2023-09-07T14:46:31;29.50;80.50
2913;DHT22;1466;48.778;9.166;2023-09-07T14:48:57;29.50;80.60
2913;DHT22;1466;48.778;9.166;2023-09-07T14:51:23;29.50;80.40
2913;DHT22;1466;48.778;9.166;2023-09-07T14:53:49;29.60;81.10
2913;DHT22;1466;48.778;9.166;2023-09-07T14:56:15;29.50;80.30
2913;DHT22;1466;48.778;9.166;2023-09-07T14:58:40;29.60;80.30
2913;DHT22;1466;48.778;9.166;2023-09-07T15:01:06;29.70;79.60
2913;DHT22;1466;48.778;9.166;2023-09-07T15:03:32;29.50;78.80
2913;DHT22;1466;48.778;9.166;2023-09-07T15:05:58;29.60;79.20
2913;DHT22;1466;48.778;9.166;2023-09-07T15:08:24;29.60;79.20
2913;DHT22;1466;48.778;9.166;2023-09-07T15:10:50;29.60;79.20
2913;DHT22;1466;48.778;9.166;2023-09-07T15:13:16;29.60;79.40
2913;DHT22;1466;48.778;9.166;2023-09-07T15:15:42;29.60;79.20
2913;DHT22;1466;48.778;9.166;2023-09-07T15:18:07;29.50;79.30
2913;DHT22;1466;48.778;9.166;2023-09-07T15:20:34;29.50;79.60
2913;DHT22;1466;48.778;9.166;2023-09-07T15:22:59;29.60;79.40
2913;DHT22;1466;48.778;9.166;2023-09-07T15:25:25;29.60;79.40
2913;DHT22;1466;48.778;9.166;2023-09-07T15:27:52;29.60;79.20
2913;DHT22;1466;48.778;9.166;2023-09-07T15:30:18;29.50;79.70
2913;DHT22;1466;48.778;9.166;2023-09-07T15:32:43;29.50;79.70
2913;DHT22;1466;48.778;9.166;2023-09-07T15:35:09;29.60;80.00
2913;DHT22;1466;48.778;9.166;2023-09-07T15:37:35;29.60;80.00
2913;DHT22;1466;48.778;9.166;2023-09-07T15:40:01;29.60;80.10
2913;DHT22;1466;48.778;9.166;2023-09-07T15:42:27;29.70;79.70
2913;DHT22;1466;48.778;9.166;2023-09-07T15:44:52;29.70;78.80
2913;DHT22;1466;48.778;9.166;2023-09-07T15:47:18;29.60;78.60
2913;DHT22;1466;48.778;9.166;2023-09-07T15:49:44;29.60;78.80
2913;DHT22;1466;48.778;9.166;2023-09-07T15:52:12;29.60;79.00
2913;DHT22;1466;48.778;9.166;2023-09-07T15:54:38;29.60;78.80
2913;DHT22;1466;48.778;9.166;2023-09-07T15:57:04;29.60;78.50